createdAt,value
2023-03-08T00:01:17.596Z,68.21
2023-03-08T00:03:47.431Z,68.24
2023-03-08T00:06:15.295Z,68.25
2023-03-08T00:08:42.342Z,68.28
2023-03-08T00:11:11.724Z,68.28
2023-03-08T00:13:38.546Z,68.36
2023-03-08T00:16:07.858Z,68.41
2023-03-08T00:18:35.298Z,68.46
2023-03-08T00:21:12.818Z,68.51
2023-03-08T00:23:40.271Z,68.62
2023-03-08T00:26:07.101Z,68.69
2023-03-08T00:28:33.701Z,68.69
2023-03-08T00:31:08.943Z,68.68
2023-03-08T00:33:36.459Z,68.79
2023-03-08T00:36:08.187Z,68.76
2023-03-08T00:38:36.333Z,68.79
2023-03-08T00:41:03.650Z,68.87
2023-03-08T00:43:30.734Z,68.85
2023-03-08T00:45:57.224Z,68.87
2023-03-08T00:48:24.473Z,69.00
2023-03-08T00:50:50.964Z,69.07
2023-03-08T00:53:17.747Z,69.14
2023-03-08T00:55:52.651Z,69.25
2023-03-08T00:58:20.060Z,69.27
2023-03-08T01:00:48.071Z,69.23
2023-03-08T01:03:15.607Z,69.34
2023-03-08T01:05:45.219Z,69.33
2023-03-08T01:08:13.108Z,69.41
2023-03-08T01:10:40.057Z,69.47
2023-03-08T01:13:08.325Z,69.49
2023-03-08T01:15:36.471Z,69.50
2023-03-08T01:18:04.597Z,69.59
2023-03-08T01:20:31.460Z,69.65
2023-03-08T01:22:58.519Z,69.67
2023-03-08T01:25:25.686Z,69.68
2023-03-08T01:27:52.201Z,69.70
2023-03-08T01:30:18.721Z,69.74
2023-03-08T01:32:45.312Z,69.78
2023-03-08T01:35:11.766Z,69.86
2023-03-08T01:37:38.255Z,70.01
2023-03-08T01:40:07.059Z,70.17
2023-03-08T01:42:34.101Z,70.16
2023-03-08T01:45:04.814Z,70.16
2023-03-08T01:47:35.453Z,70.19
2023-03-08T01:50:07.412Z,70.17
2023-03-08T01:52:40.978Z,70.24
2023-03-08T01:55:10.897Z,70.40
2023-03-08T01:57:45.020Z,70.45
2023-03-08T02:00:18.307Z,70.61
2023-03-08T02:02:49.587Z,70.52
2023-03-08T02:05:18.378Z,70.44
2023-03-08T02:07:44.903Z,70.43
2023-03-08T02:10:12.700Z,70.51
2023-03-08T02:12:40.495Z,70.54
2023-03-08T02:15:10.452Z,70.55
2023-03-08T02:17:39.622Z,70.50
2023-03-08T02:20:10.813Z,70.59
2023-03-08T02:22:41.878Z,70.61
2023-03-08T02:25:19.506Z,70.72
2023-03-08T02:27:46.592Z,70.79
2023-03-08T02:30:17.311Z,70.75
2023-03-08T02:32:44.031Z,70.77
2023-03-08T02:35:10.824Z,70.79
2023-03-08T02:37:37.335Z,70.85
2023-03-08T02:40:04.453Z,70.88
2023-03-08T02:42:31.208Z,70.91
2023-03-08T02:44:58.230Z,70.87
2023-03-08T02:47:24.709Z,70.87
2023-03-08T02:49:51.181Z,70.92
2023-03-08T02:52:17.893Z,70.99
2023-03-08T02:54:44.568Z,71.07
2023-03-08T02:57:11.039Z,71.09
2023-03-08T02:59:37.916Z,71.20
2023-03-08T03:02:04.563Z,71.33
2023-03-08T03:04:32.585Z,71.45
2023-03-08T03:06:59.618Z,71.47
2023-03-08T03:09:28.334Z,71.56
2023-03-08T03:11:55.832Z,71.62
2023-03-08T03:14:22.292Z,71.62
2023-03-08T03:16:48.869Z,71.56
2023-03-08T03:19:15.342Z,71.57
2023-03-08T03:21:41.831Z,71.59
2023-03-08T03:24:08.820Z,71.60
2023-03-08T03:26:35.291Z,71.64
2023-03-08T03:29:01.712Z,71.70
2023-03-08T03:31:28.526Z,71.70
2023-03-08T03:33:55.097Z,71.78
2023-03-08T03:36:22.404Z,71.76
2023-03-08T03:38:49.812Z,71.96
2023-03-08T03:41:19.512Z,71.97
2023-03-08T03:43:47.092Z,72.08
2023-03-08T03:46:17.324Z,72.07
2023-03-08T03:48:44.963Z,72.14
2023-03-08T03:51:14.933Z,72.22
2023-03-08T03:53:41.900Z,72.28
2023-03-08T03:56:17.530Z,72.42
2023-03-08T03:58:44.888Z,72.45
2023-03-08T04:01:16.222Z,72.41
2023-03-08T04:03:44.194Z,72.55
2023-03-08T04:06:16.915Z,72.59
2023-03-08T04:08:44.326Z,72.62
2023-03-08T04:11:13.720Z,72.55
2023-03-08T04:13:40.727Z,72.64
2023-03-08T04:16:15.057Z,72.67
2023-03-08T04:18:41.915Z,72.73
2023-03-08T04:21:08.739Z,72.82
2023-03-08T04:23:36.112Z,72.85
2023-03-08T04:26:04.533Z,72.92
2023-03-08T04:28:33.229Z,73.00
2023-03-08T04:31:00.859Z,73.06
2023-03-08T04:33:27.318Z,73.21
2023-03-08T04:35:53.777Z,73.42
2023-03-08T04:38:20.216Z,73.66
2023-03-08T04:41:04.583Z,73.70
2023-03-08T04:43:34.194Z,73.63
2023-03-08T04:46:01.155Z,73.63
2023-03-08T04:48:28.244Z,73.56
2023-03-08T04:50:59.582Z,73.49
2023-03-08T04:53:27.774Z,73.44
2023-03-08T04:55:54.735Z,73.36
2023-03-08T04:58:21.337Z,73.30
2023-03-08T05:00:47.985Z,73.24
2023-03-08T05:03:16.020Z,73.32
2023-03-08T05:05:47.023Z,73.28
2023-03-08T05:08:13.526Z,73.29
2023-03-08T05:10:45.855Z,73.35
2023-03-08T05:13:12.411Z,73.29
2023-03-08T05:15:40.045Z,73.37
2023-03-08T05:18:06.567Z,73.38
2023-03-08T05:20:33.104Z,73.37
2023-03-08T05:22:59.685Z,73.38
2023-03-08T05:25:26.266Z,73.32
2023-03-08T05:27:53.915Z,73.28
2023-03-08T05:30:20.838Z,73.30
2023-03-08T05:32:47.343Z,73.29
2023-03-08T05:35:14.046Z,73.40
2023-03-08T05:37:40.501Z,73.33
2023-03-08T05:40:07.504Z,73.36
2023-03-08T05:42:34.577Z,73.31
2023-03-08T05:45:01.924Z,73.37
2023-03-08T05:47:29.707Z,73.27
2023-03-08T05:49:56.401Z,73.21
2023-03-08T05:52:22.855Z,73.14
2023-03-08T05:54:50.195Z,73.06
2023-03-08T05:57:17.215Z,72.98
2023-03-08T05:59:44.159Z,72.85
2023-03-08T06:02:10.723Z,72.65
2023-03-08T06:04:38.513Z,72.29
2023-03-08T06:07:05.003Z,71.98
2023-03-08T06:09:31.999Z,71.80
2023-03-08T06:11:59.103Z,71.37
2023-03-08T06:14:25.637Z,71.07
2023-03-08T06:16:52.241Z,71.10
2023-03-08T06:19:18.813Z,71.09
2023-03-08T06:21:46.035Z,71.06
2023-03-08T06:24:13.016Z,70.92
2023-03-08T06:26:39.515Z,70.93
2023-03-08T06:29:05.966Z,70.46
2023-03-08T06:31:32.526Z,70.22
2023-03-08T06:34:03.078Z,70.13
2023-03-08T06:36:30.452Z,69.94
2023-03-08T06:38:59.012Z,69.59
2023-03-08T06:41:25.769Z,69.18
2023-03-08T06:43:52.242Z,68.86
2023-03-08T06:46:19.749Z,68.59
2023-03-08T06:48:49.124Z,68.24
2023-03-08T06:51:16.922Z,68.40
2023-03-08T06:53:43.498Z,68.06
2023-03-08T06:56:13.410Z,67.92
2023-03-08T06:58:40.250Z,67.62
2023-03-08T07:01:09.067Z,67.78
2023-03-08T07:03:36.806Z,67.61
2023-03-08T07:06:09.153Z,67.46
2023-03-08T07:08:37.602Z,67.40
2023-03-08T07:11:09.072Z,67.46
2023-03-08T07:13:37.364Z,67.57
2023-03-08T07:16:09.706Z,67.33
2023-03-08T07:18:37.468Z,67.39
2023-03-08T07:21:04.869Z,67.32
2023-03-08T07:23:31.486Z,66.71
2023-03-08T07:25:58.776Z,66.39
2023-03-08T07:28:25.345Z,66.58
2023-03-08T07:30:52.982Z,65.77
2023-03-08T07:33:22.506Z,66.16
2023-03-08T07:35:49.378Z,65.45
2023-03-08T07:38:16.960Z,65.33
2023-03-08T07:40:44.404Z,65.40
2023-03-08T07:43:11.246Z,65.46
2023-03-08T07:45:41.526Z,65.69
2023-03-08T07:48:08.773Z,64.94
2023-03-08T07:50:36.429Z,64.59
2023-03-08T07:53:03.959Z,64.25
2023-03-08T07:55:30.997Z,63.60
2023-03-08T07:57:57.479Z,63.93
2023-03-08T08:00:24.737Z,63.76
2023-03-08T08:02:53.463Z,63.81
2023-03-08T08:05:26.953Z,62.88
2023-03-08T08:07:54.174Z,63.50
2023-03-08T08:10:21.102Z,63.14
2023-03-08T08:12:47.656Z,63.25
2023-03-08T08:15:16.828Z,63.31
2023-03-08T08:17:43.421Z,63.01
2023-03-08T08:20:11.091Z,62.40
2023-03-08T08:22:37.707Z,62.23
2023-03-08T08:25:05.504Z,61.42
2023-03-08T08:27:32.412Z,62.31
2023-03-08T08:29:59.420Z,61.80
2023-03-08T08:32:26.659Z,61.73
2023-03-08T08:34:53.095Z,61.64
2023-03-08T08:37:19.709Z,61.87
2023-03-08T08:39:46.197Z,61.90
2023-03-08T08:42:13.480Z,61.89
2023-03-08T08:44:40.432Z,62.02
2023-03-08T08:47:07.548Z,61.90
2023-03-08T08:49:34.077Z,61.66
2023-03-08T08:52:00.629Z,61.66
2023-03-08T08:54:28.141Z,61.55
2023-03-08T08:56:55.151Z,60.51
2023-03-08T08:59:21.735Z,60.94
2023-03-08T09:01:48.481Z,61.34
2023-03-08T09:04:16.274Z,61.05
2023-03-08T09:06:43.394Z,60.60
2023-03-08T09:09:10.711Z,60.05
2023-03-08T09:11:45.114Z,60.26
2023-03-08T09:14:18.612Z,60.54
2023-03-08T09:16:45.749Z,59.98
2023-03-08T09:19:14.897Z,59.82
2023-03-08T09:22:36.329Z,59.53
2023-03-08T09:25:03.872Z,60.07
2023-03-08T09:27:30.956Z,59.57
2023-03-08T09:29:58.184Z,60.35
2023-03-08T09:32:25.457Z,60.34
2023-03-08T09:34:57.780Z,60.17
2023-03-08T09:37:24.346Z,60.19
2023-03-08T09:39:52.452Z,60.25
2023-03-08T09:42:39.796Z,60.47
2023-03-08T09:45:26.197Z,60.34
2023-03-08T09:48:22.747Z,60.43
2023-03-08T09:51:03.659Z,59.69
2023-03-08T09:53:51.120Z,59.33
2023-03-08T09:56:46.348Z,59.62
2023-03-08T09:59:14.242Z,59.69
2023-03-08T10:01:55.487Z,58.91
2023-03-08T10:04:25.315Z,57.95
2023-03-08T10:07:03.645Z,57.65
2023-03-08T10:09:39.535Z,56.11
2023-03-08T10:12:28.720Z,56.02
2023-03-08T10:15:13.911Z,55.73
2023-03-08T10:17:49.602Z,55.25
2023-03-08T10:20:30.811Z,55.60
2023-03-08T10:23:06.975Z,54.61
2023-03-08T10:25:34.366Z,55.92
2023-03-08T10:28:03.186Z,56.05
2023-03-08T10:30:39.987Z,55.76
2023-03-08T10:33:11.398Z,56.00
2023-03-08T10:35:55.584Z,55.89
2023-03-08T10:38:25.496Z,55.74
2023-03-08T10:41:12.463Z,55.35
2023-03-08T10:43:51.868Z,54.49
2023-03-08T10:46:21.736Z,55.30
2023-03-08T10:48:48.949Z,55.66
2023-03-08T10:51:22.700Z,55.36
2023-03-08T10:53:57.897Z,55.16
2023-03-08T10:56:30.863Z,55.01
2023-03-08T10:58:58.300Z,55.05
2023-03-08T11:01:29.244Z,55.29
2023-03-08T11:04:00.058Z,54.51
2023-03-08T11:06:27.144Z,55.48
2023-03-08T11:08:56.674Z,55.51
2023-03-08T11:11:23.510Z,55.47
2023-03-08T11:13:52.064Z,55.42
2023-03-08T11:16:28.401Z,55.00
2023-03-08T11:18:58.563Z,54.41
2023-03-08T11:21:45.842Z,54.39
2023-03-08T11:24:21.194Z,54.31
2023-03-08T11:27:12.833Z,53.81
2023-03-08T11:29:56.612Z,53.63
2023-03-08T11:32:36.794Z,53.25
2023-03-08T11:35:37.533Z,52.77
2023-03-08T11:38:26.796Z,51.95
2023-03-08T11:41:14.699Z,51.79
2023-03-08T11:43:55.798Z,51.25
2023-03-08T11:47:01.825Z,50.19
2023-03-08T11:49:34.367Z,50.71
2023-03-08T11:52:11.595Z,50.99
2023-03-08T11:55:09.977Z,51.53
2023-03-08T11:57:43.242Z,51.73
2023-03-08T12:00:33.565Z,51.74
2023-03-08T12:03:11.170Z,51.71
2023-03-08T12:05:52.507Z,51.67
2023-03-08T12:08:24.853Z,51.34
2023-03-08T12:11:22.564Z,50.61
2023-03-08T12:14:03.546Z,51.46
2023-03-08T12:16:39.761Z,51.92
2023-03-08T12:19:25.750Z,51.88
2023-03-08T12:21:55.302Z,51.84
2023-03-08T12:24:49.509Z,51.61
2023-03-08T12:27:28.192Z,51.95
2023-03-08T12:30:18.019Z,52.09
2023-03-08T12:32:46.946Z,52.30
2023-03-08T12:35:22.641Z,51.81
2023-03-08T12:37:56.577Z,51.99
2023-03-08T12:40:34.741Z,50.62
2023-03-08T12:43:26.498Z,51.28
2023-03-08T12:45:59.250Z,51.47
2023-03-08T12:48:27.397Z,51.48
2023-03-08T12:51:00.468Z,51.86
2023-03-08T12:53:38.554Z,51.81
2023-03-08T12:56:35.945Z,52.28
2023-03-08T12:59:27.296Z,52.29
2023-03-08T13:01:57.017Z,52.36
2023-03-08T13:04:40.462Z,52.45
2023-03-08T13:07:38.929Z,52.60
2023-03-08T13:10:23.367Z,52.67
2023-03-08T13:13:09.305Z,52.67
2023-03-08T13:15:39.508Z,52.77
2023-03-08T13:18:07.856Z,52.57
2023-03-08T13:20:41.742Z,52.54
2023-03-08T13:23:14.662Z,52.67
2023-03-08T13:25:46.666Z,52.71
2023-03-08T13:28:17.629Z,52.72
2023-03-08T13:30:51.426Z,53.08
2023-03-08T13:33:25.357Z,53.19
2023-03-08T13:36:24.133Z,53.35
2023-03-08T13:39:15.512Z,53.38
2023-03-08T13:41:45.254Z,53.31
2023-03-08T13:44:21.043Z,53.58
2023-03-08T13:46:50.883Z,53.63
2023-03-08T13:49:52.084Z,53.67
2023-03-08T13:52:22.644Z,53.85
2023-03-08T13:54:52.913Z,53.69
2023-03-08T13:57:23.627Z,53.54
2023-03-08T13:59:54.331Z,53.80
2023-03-08T14:02:24.266Z,53.55
2023-03-08T14:04:51.855Z,53.44
2023-03-08T14:07:25.171Z,52.91
2023-03-08T14:09:52.852Z,52.84
2023-03-08T14:12:27.129Z,52.60
2023-03-08T14:15:00.749Z,52.95
2023-03-08T14:17:31.991Z,52.80
2023-03-08T14:20:15.562Z,52.89
2023-03-08T14:22:48.311Z,51.99
2023-03-08T14:25:29.925Z,52.51
2023-03-08T14:27:57.392Z,52.41
2023-03-08T14:30:29.895Z,52.36
2023-03-08T14:33:20.156Z,52.66
2023-03-08T14:35:59.293Z,52.91
2023-03-08T14:38:29.777Z,53.32
2023-03-08T14:40:58.323Z,53.13
2023-03-08T14:43:26.902Z,53.26
2023-03-08T14:45:57.768Z,53.16
2023-03-08T14:48:35.543Z,53.38
2023-03-08T14:51:24.124Z,53.63
2023-03-08T14:54:00.383Z,53.61
2023-03-08T14:56:29.580Z,53.39
2023-03-08T14:59:03.299Z,53.43
2023-03-08T15:01:35.697Z,53.36
2023-03-08T15:04:04.370Z,53.32
2023-03-08T15:06:33.837Z,53.56
2023-03-08T15:09:02.312Z,53.51
2023-03-08T15:11:30.957Z,53.64
2023-03-08T15:13:59.057Z,53.91
2023-03-08T15:16:26.925Z,54.21
2023-03-08T15:18:54.428Z,54.30
2023-03-08T15:21:27.481Z,54.32
2023-03-08T15:23:55.254Z,54.40
2023-03-08T15:26:25.229Z,54.49
2023-03-08T15:28:51.808Z,54.62
2023-03-08T15:31:19.138Z,54.78
2023-03-08T15:33:46.045Z,55.25
2023-03-08T15:36:15.663Z,55.58
2023-03-08T15:38:43.106Z,56.22
2023-03-08T15:41:14.156Z,56.71
2023-03-08T15:43:41.821Z,57.19
2023-03-08T15:46:13.946Z,57.58
2023-03-08T15:48:41.268Z,57.98
2023-03-08T15:51:17.676Z,57.88
2023-03-08T15:53:44.954Z,57.89
2023-03-08T15:56:12.123Z,57.83
2023-03-08T15:58:38.757Z,57.74
2023-03-08T16:01:06.272Z,57.98
2023-03-08T16:03:34.425Z,58.40
2023-03-08T16:06:03.507Z,58.98
2023-03-08T16:08:30.834Z,59.33
2023-03-08T16:11:03.091Z,59.46
2023-03-08T16:13:30.448Z,59.61
2023-03-08T16:15:59.059Z,59.61
2023-03-08T16:18:25.927Z,59.72
2023-03-08T16:20:52.915Z,60.17
2023-03-08T16:23:20.078Z,60.20
2023-03-08T16:26:05.422Z,60.04
2023-03-08T16:28:40.620Z,60.14
2023-03-08T16:31:08.500Z,60.37
2023-03-08T16:33:36.498Z,60.62
2023-03-08T16:36:03.340Z,61.14
2023-03-08T16:38:30.017Z,62.16
2023-03-08T16:41:11.616Z,62.17
2023-03-08T16:43:46.467Z,62.01
2023-03-08T16:46:38.635Z,62.11
2023-03-08T16:49:13.035Z,61.80
2023-03-08T16:51:42.125Z,62.46
2023-03-08T16:54:10.867Z,62.86
2023-03-08T16:56:38.507Z,63.33
2023-03-08T16:59:05.026Z,62.91
2023-03-08T17:01:32.320Z,62.48
2023-03-08T17:03:59.179Z,62.69
2023-03-08T17:06:29.140Z,62.66
2023-03-08T17:08:57.920Z,62.87
2023-03-08T17:11:32.399Z,62.79
2023-03-08T17:14:07.132Z,63.03
2023-03-08T17:16:35.574Z,63.47
2023-03-08T17:19:05.568Z,63.47
2023-03-08T17:21:37.637Z,63.38
2023-03-08T17:24:06.898Z,63.86
2023-03-08T17:26:39.610Z,63.60
2023-03-08T17:29:14.907Z,63.72
2023-03-08T17:31:43.137Z,63.32
2023-03-08T17:34:10.461Z,62.86
2023-03-08T17:36:39.781Z,62.29
2023-03-08T17:39:07.805Z,62.03
2023-03-08T17:41:38.954Z,61.71
2023-03-08T17:44:06.033Z,61.30
2023-03-08T17:46:32.733Z,61.19
2023-03-08T17:48:59.200Z,60.83
2023-03-08T17:51:28.271Z,60.80
2023-03-08T17:53:59.175Z,60.83
2023-03-08T17:56:37.946Z,60.87
2023-03-08T17:59:10.128Z,61.01
2023-03-08T18:01:40.738Z,61.12
2023-03-08T18:04:11.581Z,61.04
2023-03-08T18:06:42.975Z,61.13
2023-03-08T18:09:16.276Z,61.03
2023-03-08T18:11:51.001Z,61.09
2023-03-08T18:14:18.479Z,61.18
2023-03-08T18:16:48.231Z,61.22
2023-03-08T18:19:14.740Z,61.25
2023-03-08T18:21:41.778Z,61.40
2023-03-08T18:24:12.056Z,61.60
2023-03-08T18:26:39.763Z,61.95
2023-03-08T18:29:06.192Z,61.88
2023-03-08T18:31:36.908Z,62.06
2023-03-08T18:34:04.590Z,62.08
2023-03-08T18:36:31.056Z,62.05
2023-03-08T18:38:57.608Z,62.09
2023-03-08T18:41:29.188Z,62.18
2023-03-08T18:44:00.724Z,62.32
2023-03-08T18:46:34.223Z,62.52
2023-03-08T18:49:12.615Z,62.71
2023-03-08T18:51:43.435Z,62.58
2023-03-08T18:54:13.635Z,62.42
2023-03-08T18:56:41.841Z,62.31
2023-03-08T18:59:10.035Z,62.37
2023-03-08T19:01:36.814Z,62.30
2023-03-08T19:04:16.127Z,62.29
2023-03-08T19:06:48.223Z,62.23
2023-03-08T19:09:21.065Z,62.13
2023-03-08T19:11:48.554Z,62.11
2023-03-08T19:14:20.990Z,62.19
2023-03-08T19:16:57.231Z,62.27
2023-03-08T19:19:26.592Z,62.39
2023-03-08T19:21:56.158Z,62.36
2023-03-08T19:24:25.044Z,62.30
2023-03-08T19:26:58.307Z,62.34
2023-03-08T19:29:36.191Z,62.28
2023-03-08T19:32:07.821Z,62.31
2023-03-08T19:34:37.779Z,62.40
2023-03-08T19:37:09.034Z,62.37
2023-03-08T19:39:37.945Z,62.35
2023-03-08T19:42:14.201Z,62.48
2023-03-08T19:44:48.879Z,62.40
2023-03-08T19:47:20.280Z,62.22
2023-03-08T19:49:49.825Z,62.10
2023-03-08T19:52:16.341Z,62.02
2023-03-08T19:54:44.009Z,61.90
2023-03-08T19:57:10.570Z,61.83
2023-03-08T19:59:40.363Z,61.73
2023-03-08T20:02:12.279Z,61.54
2023-03-08T20:04:42.472Z,61.53
2023-03-08T20:07:11.975Z,61.54
2023-03-08T20:09:53.965Z,61.47
2023-03-08T20:12:24.062Z,61.41
2023-03-08T20:14:58.220Z,61.35
2023-03-08T20:17:26.473Z,61.31
2023-03-08T20:19:52.984Z,61.28
2023-03-08T20:22:19.474Z,61.25
2023-03-08T20:24:52.869Z,61.24
2023-03-08T20:27:30.157Z,61.24
2023-03-08T20:29:57.565Z,61.30
2023-03-08T20:32:26.072Z,61.36
2023-03-08T20:34:56.966Z,61.44
2023-03-08T20:37:26.083Z,61.48
2023-03-08T20:40:01.199Z,61.61
2023-03-08T20:42:41.015Z,61.68
2023-03-08T20:45:13.661Z,61.80
2023-03-08T20:47:46.025Z,61.92
2023-03-08T20:50:15.557Z,61.95
2023-03-08T20:52:50.118Z,62.03
2023-03-08T20:55:17.312Z,62.11
2023-03-08T20:57:44.542Z,62.27
2023-03-08T21:00:13.914Z,62.41
2023-03-08T21:02:42.246Z,62.45
2023-03-08T21:05:13.257Z,62.51
2023-03-08T21:07:41.291Z,62.58
2023-03-08T21:10:29.438Z,62.66
2023-03-08T21:13:12.190Z,62.80
2023-03-08T21:15:43.411Z,63.12
2023-03-08T21:18:13.422Z,63.14
2023-03-08T21:20:42.369Z,63.11
2023-03-08T21:23:08.876Z,63.25
2023-03-08T21:25:36.223Z,63.47
2023-03-08T21:28:04.759Z,63.51
2023-03-08T21:30:32.065Z,63.65
2023-03-08T21:32:58.987Z,63.73
2023-03-08T21:35:25.474Z,63.92
2023-03-08T21:37:52.038Z,64.01
2023-03-08T21:40:18.647Z,64.07
2023-03-08T21:42:45.155Z,64.21
2023-03-08T21:45:12.380Z,64.38
2023-03-08T21:47:39.475Z,64.33
2023-03-08T21:50:08.921Z,64.34
2023-03-08T21:52:36.404Z,64.55
2023-03-08T21:55:03.155Z,64.66
2023-03-08T21:57:34.064Z,64.72
2023-03-08T22:00:01.178Z,64.81
2023-03-08T22:02:27.712Z,65.15
2023-03-08T22:04:54.210Z,65.39
2023-03-08T22:07:20.567Z,65.48
2023-03-08T22:09:47.449Z,65.44
2023-03-08T22:12:14.455Z,65.41
2023-03-08T22:14:40.880Z,65.49
2023-03-08T22:17:07.297Z,65.54
2023-03-08T22:19:33.808Z,65.51
2023-03-08T22:22:00.848Z,65.75
2023-03-08T22:24:27.850Z,65.68
2023-03-08T22:26:54.353Z,65.86
2023-03-08T22:29:20.836Z,65.93
2023-03-08T22:31:47.425Z,66.04
2023-03-08T22:34:13.973Z,66.19
2023-03-08T22:36:40.981Z,66.22
2023-03-08T22:39:08.076Z,66.55
2023-03-08T22:41:34.594Z,66.56
2023-03-08T22:44:03.466Z,66.73
2023-03-08T22:46:30.141Z,67.05
2023-03-08T22:48:57.872Z,67.15
2023-03-08T22:51:26.973Z,67.31
2023-03-08T22:53:55.428Z,67.24
2023-03-08T22:56:25.623Z,67.37
2023-03-08T22:58:52.650Z,67.55
2023-03-08T23:01:21.808Z,67.62
2023-03-08T23:03:50.183Z,67.82
2023-03-08T23:06:17.974Z,68.11
2023-03-08T23:08:45.802Z,67.98
2023-03-08T23:11:12.916Z,68.06
2023-03-08T23:13:40.599Z,68.11
2023-03-08T23:16:07.903Z,68.43
2023-03-08T23:18:34.677Z,68.55
2023-03-08T23:21:04.170Z,68.67
2023-03-08T23:23:30.965Z,68.65
2023-03-08T23:25:57.814Z,68.80
2023-03-08T23:28:24.506Z,69.11
2023-03-08T23:30:51.086Z,69.14
2023-03-08T23:33:17.884Z,69.24
2023-03-08T23:35:48.384Z,69.31
2023-03-08T23:38:15.188Z,69.55
2023-03-08T23:40:41.651Z,69.55
2023-03-08T23:43:08.756Z,69.60
2023-03-08T23:45:38.616Z,69.73
2023-03-08T23:48:05.248Z,69.77
2023-03-08T23:50:34.209Z,69.76
2023-03-08T23:53:00.730Z,69.72
2023-03-08T23:55:27.226Z,69.73
2023-03-08T23:57:54.295Z,69.79
